createdAt,value
2023-01-03T00:01:19.909Z,3.00
2023-01-03T00:03:47.353Z,3.50
2023-01-03T00:06:32.226Z,3.78
2023-01-03T00:09:01.106Z,6.40
2023-01-03T00:11:48.974Z,2.85
2023-01-03T00:14:25.823Z,3.70
2023-01-03T00:16:55.621Z,4.63
2023-01-03T00:19:23.601Z,5.05
2023-01-03T00:21:50.858Z,4.25
2023-01-03T00:24:17.801Z,4.00
2023-01-03T00:26:45.048Z,5.70
2023-01-03T00:29:12.403Z,5.28
2023-01-03T00:31:39.913Z,4.75
2023-01-03T00:34:07.684Z,4.75
2023-01-03T00:36:35.316Z,4.60
2023-01-03T00:39:02.483Z,4.40
2023-01-03T00:41:30.325Z,5.57
2023-01-03T00:43:57.457Z,4.57
2023-01-03T00:46:24.584Z,5.93
2023-01-03T00:48:51.506Z,7.35
2023-01-03T00:51:24.375Z,4.47
2023-01-03T00:53:55.820Z,6.97
2023-01-03T00:56:25.438Z,7.25
2023-01-03T00:58:53.403Z,9.15
2023-01-03T01:03:51.813Z,7.07
2023-01-03T01:06:18.586Z,7.47
2023-01-03T01:08:47.014Z,7.00
2023-01-03T01:11:14.831Z,5.85
2023-01-03T01:13:43.190Z,7.78
2023-01-03T01:16:15.771Z,8.07
2023-01-03T01:18:44.948Z,5.13
2023-01-03T01:21:19.704Z,5.90
2023-01-03T01:23:47.438Z,7.15
2023-01-03T01:26:17.028Z,7.00
2023-01-03T01:28:44.036Z,5.40
2023-01-03T01:33:40.216Z,5.75
2023-01-03T01:36:17.715Z,6.30
2023-01-03T01:38:45.591Z,6.65
2023-01-03T01:41:14.683Z,5.60
2023-01-03T01:44:18.284Z,6.15
2023-01-03T01:46:45.039Z,6.35
2023-01-03T01:49:18.518Z,6.20
2023-01-03T01:51:45.375Z,6.25
2023-01-03T01:54:12.555Z,5.20
2023-01-03T01:56:48.955Z,5.35
2023-01-03T01:59:16.110Z,7.40
2023-01-03T02:01:45.874Z,5.25
2023-01-03T02:04:21.764Z,5.40
2023-01-03T02:06:49.083Z,7.15
2023-01-03T02:09:16.407Z,7.53
2023-01-03T02:12:16.285Z,7.20
2023-01-03T02:15:15.423Z,6.55
2023-01-03T02:17:58.895Z,4.68
2023-01-03T02:21:18.235Z,5.20
2023-01-03T02:24:07.035Z,4.05
2023-01-03T02:26:44.779Z,6.97
2023-01-03T02:29:38.296Z,6.28
2023-01-03T02:32:10.455Z,5.38
2023-01-03T02:35:02.028Z,5.68
2023-01-03T02:37:34.645Z,5.05
2023-01-03T02:40:31.776Z,5.50
2023-01-03T02:43:12.697Z,5.72
2023-01-03T02:46:01.773Z,4.50
2023-01-03T02:48:56.288Z,6.13
2023-01-03T02:51:57.576Z,6.15
2023-01-03T02:54:41.999Z,5.20
2023-01-03T02:57:16.034Z,6.03
2023-01-03T02:59:49.641Z,6.78
2023-01-03T03:02:18.274Z,9.20
2023-01-03T03:04:48.024Z,6.13
2023-01-03T03:07:19.562Z,7.47
2023-01-03T03:10:05.182Z,6.63
2023-01-03T03:12:53.307Z,6.05
2023-01-03T03:17:54.234Z,7.55
2023-01-03T03:20:39.469Z,7.35
2023-01-03T03:23:34.121Z,6.72
2023-01-03T03:26:31.453Z,7.30
2023-01-03T03:29:03.781Z,7.57
2023-01-03T03:31:43.285Z,8.50
2023-01-03T03:34:19.031Z,8.00
2023-01-03T03:37:05.187Z,7.60
2023-01-03T03:39:51.719Z,8.80
2023-01-03T03:42:55.681Z,11.95
2023-01-03T03:45:25.495Z,10.05
2023-01-03T03:48:07.680Z,8.38
2023-01-03T03:50:45.730Z,8.20
2023-01-03T03:53:16.368Z,7.93
2023-01-03T03:55:53.767Z,8.80
2023-01-03T03:58:23.705Z,8.63
2023-01-03T04:00:52.617Z,10.57
2023-01-03T04:03:21.757Z,8.52
2023-01-03T04:06:00.489Z,10.63
2023-01-03T04:08:27.297Z,7.38
2023-01-03T04:11:05.485Z,7.78
2023-01-03T04:13:37.237Z,6.80
2023-01-03T04:16:05.249Z,7.75
2023-01-03T04:18:32.272Z,10.02
2023-01-03T04:23:26.169Z,6.90
2023-01-03T04:25:53.201Z,8.82
2023-01-03T04:30:47.361Z,12.82
2023-01-03T04:33:14.291Z,10.13
2023-01-03T04:35:41.159Z,16.48
2023-01-03T04:38:09.254Z,14.20
2023-01-03T04:40:38.511Z,15.93
2023-01-03T04:43:24.552Z,11.70
2023-01-03T04:45:51.988Z,10.80
2023-01-03T04:48:19.011Z,10.80
2023-01-03T04:50:55.480Z,10.23
2023-01-03T04:53:23.980Z,14.23
2023-01-03T04:55:52.590Z,10.77
2023-01-03T04:58:19.957Z,11.55
2023-01-03T05:00:46.880Z,10.15
2023-01-03T05:05:40.920Z,14.18
2023-01-03T05:10:38.021Z,12.27
2023-01-03T05:13:05.601Z,11.63
2023-01-03T05:15:39.182Z,13.98
2023-01-03T05:18:06.482Z,17.17
2023-01-03T05:20:54.950Z,18.38
2023-01-03T05:23:40.406Z,10.98
2023-01-03T05:26:19.171Z,13.48
2023-01-03T05:28:49.730Z,15.75
2023-01-03T05:31:16.547Z,13.15
2023-01-03T05:36:24.160Z,15.77
2023-01-03T05:38:51.042Z,15.38
2023-01-03T05:41:37.871Z,15.10
2023-01-03T05:44:04.976Z,14.68
2023-01-03T05:48:59.024Z,13.10
2023-01-03T05:51:25.748Z,13.43
2023-01-03T05:53:52.631Z,14.98
2023-01-03T05:56:19.572Z,13.98
2023-01-03T05:58:46.839Z,16.02
2023-01-03T06:01:14.869Z,15.65
2023-01-03T06:03:46.573Z,14.32
2023-01-03T06:06:15.128Z,16.20
2023-01-03T06:08:42.061Z,13.38
2023-01-03T06:11:12.014Z,14.38
2023-01-03T06:13:39.939Z,12.23
2023-01-03T06:16:28.553Z,14.98
2023-01-03T06:18:55.670Z,10.10
2023-01-03T06:23:49.387Z,15.35
2023-01-03T06:26:18.242Z,13.77
2023-01-03T06:28:46.098Z,13.52
2023-01-03T06:31:14.727Z,13.13
2023-01-03T06:33:42.001Z,13.38
2023-01-03T06:36:21.034Z,11.63
2023-01-03T06:38:47.793Z,15.60
2023-01-03T06:41:15.964Z,16.73
2023-01-03T06:43:43.224Z,13.20
2023-01-03T06:46:30.629Z,12.98
2023-01-03T06:49:16.988Z,14.85
2023-01-03T06:52:04.814Z,14.90
2023-01-03T06:54:34.333Z,11.82
2023-01-03T06:57:01.413Z,11.60
2023-01-03T06:59:28.300Z,11.82
2023-01-03T07:01:55.955Z,11.27
2023-01-03T07:04:24.855Z,13.02
2023-01-03T07:06:51.903Z,13.38
2023-01-03T07:09:18.658Z,13.90
2023-01-03T07:11:45.941Z,12.82
2023-01-03T07:14:13.183Z,13.30
2023-01-03T07:21:38.016Z,13.32
2023-01-03T07:24:07.081Z,11.05
2023-01-03T07:26:35.056Z,11.25
2023-01-03T07:29:07.996Z,11.38
2023-01-03T07:31:35.451Z,10.85
2023-01-03T07:34:02.300Z,15.20
2023-01-03T07:36:29.215Z,12.15
2023-01-03T07:38:56.152Z,12.88
2023-01-03T07:41:43.578Z,12.70
2023-01-03T07:45:01.578Z,10.02
2023-01-03T07:47:30.550Z,10.77
2023-01-03T07:49:57.233Z,12.85
2023-01-03T07:52:24.036Z,12.52
2023-01-03T07:54:50.777Z,10.57
2023-01-03T07:57:17.501Z,13.27
2023-01-03T07:59:44.725Z,14.07
2023-01-03T08:02:11.843Z,11.27
2023-01-03T08:04:38.778Z,15.20
2023-01-03T08:07:05.608Z,14.15
2023-01-03T08:09:51.114Z,14.13
2023-01-03T08:12:36.725Z,12.70
2023-01-03T08:15:03.858Z,11.65
2023-01-03T08:19:57.412Z,13.32
2023-01-03T08:22:24.204Z,15.95
2023-01-03T08:24:50.897Z,14.60
2023-01-03T08:27:17.593Z,15.18
2023-01-03T08:29:46.809Z,12.35
2023-01-03T08:32:14.401Z,12.52
2023-01-03T08:34:44.383Z,11.00
2023-01-03T08:37:12.819Z,11.45
2023-01-03T08:39:44.543Z,8.95
2023-01-03T08:42:14.886Z,9.65
2023-01-03T08:44:44.875Z,7.35
2023-01-03T08:47:12.536Z,8.00
2023-01-03T08:49:39.617Z,10.27
2023-01-03T08:54:33.093Z,10.15
2023-01-03T08:57:00.018Z,10.95
2023-01-03T08:59:26.913Z,9.70
2023-01-03T09:04:24.312Z,7.25
2023-01-03T09:06:51.059Z,5.90
2023-01-03T09:09:17.896Z,5.30
2023-01-03T09:11:44.773Z,7.35
2023-01-03T09:14:11.568Z,10.38
2023-01-03T09:16:38.555Z,4.88
2023-01-03T09:19:06.604Z,5.78
2023-01-03T09:21:33.372Z,5.45
2023-01-03T09:24:00.119Z,4.97
2023-01-03T09:26:26.891Z,3.90
2023-01-03T09:28:53.596Z,6.13
2023-01-03T09:31:20.276Z,4.50
2023-01-03T09:33:47.011Z,4.15
2023-01-03T09:36:14.097Z,4.63
2023-01-03T09:38:40.909Z,4.38
2023-01-03T09:41:15.075Z,5.18
2023-01-03T09:43:45.115Z,4.40
2023-01-03T09:46:26.100Z,5.35
2023-01-03T09:48:57.722Z,5.55
2023-01-03T09:51:44.618Z,4.65
2023-01-03T09:54:51.534Z,5.25
2023-01-03T09:57:52.566Z,5.10
2023-01-03T10:00:58.928Z,4.72
2023-01-03T10:03:57.152Z,3.90
2023-01-03T10:06:31.881Z,3.83
2023-01-03T10:09:29.568Z,4.22
2023-01-03T10:12:20.397Z,6.35
2023-01-03T10:15:02.280Z,5.68
2023-01-03T10:18:08.260Z,4.50
2023-01-03T10:21:05.020Z,4.80
2023-01-03T10:23:31.972Z,6.25
2023-01-03T10:25:59.167Z,4.03
2023-01-03T10:28:37.772Z,4.18
2023-01-03T10:31:13.999Z,4.35
2023-01-03T10:33:45.805Z,3.78
2023-01-03T10:36:14.220Z,3.85
2023-01-03T10:38:47.858Z,5.60
2023-01-03T10:41:30.575Z,2.92
2023-01-03T10:43:59.685Z,4.32
2023-01-03T10:46:28.063Z,6.80
2023-01-03T10:49:26.564Z,4.88
2023-01-03T10:51:46.957Z,5.05
2023-01-03T10:54:19.588Z,5.85
2023-01-03T10:56:47.637Z,6.63
2023-01-03T10:59:31.871Z,5.28
2023-01-03T11:02:15.239Z,5.65
2023-01-03T11:04:43.771Z,6.10
2023-01-03T11:07:13.777Z,4.95
2023-01-03T11:09:54.010Z,4.75
2023-01-03T11:12:28.979Z,5.60
2023-01-03T11:14:57.998Z,4.45
2023-01-03T11:17:26.831Z,7.40
2023-01-03T11:19:54.264Z,4.93
2023-01-03T11:22:39.785Z,4.80
2023-01-03T11:25:22.196Z,5.70
2023-01-03T11:28:34.399Z,6.90
2023-01-03T11:31:17.701Z,4.72
2023-01-03T11:33:56.676Z,3.88
2023-01-03T11:36:29.648Z,6.50
2023-01-03T11:39:11.014Z,5.10
2023-01-03T11:42:03.173Z,5.07
2023-01-03T11:44:39.142Z,4.05
2023-01-03T11:47:29.790Z,5.07
2023-01-03T11:50:24.675Z,7.97
2023-01-03T11:53:13.336Z,5.88
2023-01-03T11:55:54.054Z,6.95
2023-01-03T11:58:58.333Z,4.95
2023-01-03T12:02:03.114Z,4.72
2023-01-03T12:04:49.269Z,6.10
2023-01-03T12:07:47.002Z,4.30
2023-01-03T12:10:26.476Z,3.72
2023-01-03T12:13:11.604Z,6.63
2023-01-03T12:15:54.000Z,4.75
2023-01-03T12:19:12.579Z,5.90
2023-01-03T12:21:56.677Z,5.53
2023-01-03T12:24:29.096Z,3.78
2023-01-03T12:27:01.002Z,5.70
2023-01-03T12:29:58.950Z,5.05
2023-01-03T12:32:36.060Z,6.35
2023-01-03T12:35:39.702Z,6.43
2023-01-03T12:38:10.257Z,6.93
2023-01-03T12:41:01.263Z,5.43
2023-01-03T12:43:37.455Z,3.30
2023-01-03T12:46:13.672Z,4.85
2023-01-03T12:48:53.455Z,3.60
2023-01-03T12:51:22.607Z,3.33
2023-01-03T12:54:28.314Z,5.38
2023-01-03T12:57:10.151Z,3.25
2023-01-03T12:59:40.171Z,3.55
2023-01-03T13:02:27.319Z,3.45
2023-01-03T13:05:13.196Z,6.07
2023-01-03T13:07:44.791Z,4.82
2023-01-03T13:10:19.828Z,6.15
2023-01-03T13:12:52.955Z,5.93
2023-01-03T13:15:31.392Z,6.45
2023-01-03T13:18:21.180Z,4.53
2023-01-03T13:20:50.437Z,5.18
2023-01-03T13:23:41.356Z,7.07
2023-01-03T13:26:19.316Z,6.65
2023-01-03T13:28:46.292Z,4.30
2023-01-03T13:33:52.209Z,6.15
2023-01-03T13:36:19.487Z,8.23
2023-01-03T13:38:46.383Z,5.55
2023-01-03T13:41:53.792Z,4.55
2023-01-03T13:44:26.773Z,5.35
2023-01-03T13:46:53.717Z,5.25
2023-01-03T13:51:57.817Z,4.60
2023-01-03T13:54:56.983Z,7.53
2023-01-03T13:57:52.204Z,7.63
2023-01-03T14:00:22.603Z,5.80
2023-01-03T14:03:11.669Z,12.52
2023-01-03T14:06:05.857Z,7.25
2023-01-03T14:09:03.052Z,5.60
2023-01-03T14:11:54.702Z,5.05
2023-01-03T14:14:27.498Z,4.88
2023-01-03T14:16:57.644Z,4.28
2023-01-03T14:19:34.302Z,5.07
2023-01-03T14:22:27.254Z,8.35
2023-01-03T14:24:57.151Z,6.72
2023-01-03T14:27:28.332Z,5.03
2023-01-03T14:29:55.922Z,6.65
2023-01-03T14:32:33.972Z,5.72
2023-01-03T14:35:01.859Z,4.07
2023-01-03T14:37:28.713Z,3.83
2023-01-03T14:40:04.436Z,4.50
2023-01-03T14:42:31.253Z,5.93
2023-01-03T14:45:00.122Z,5.43
2023-01-03T14:47:38.237Z,4.18
2023-01-03T14:50:06.952Z,6.47
2023-01-03T14:52:38.194Z,6.57
2023-01-03T14:55:14.360Z,4.75
2023-01-03T14:57:43.638Z,6.73
2023-01-03T15:00:32.497Z,6.05
2023-01-03T15:03:02.691Z,8.02
2023-01-03T15:05:43.495Z,5.95
2023-01-03T15:08:31.446Z,6.35
2023-01-03T15:11:08.713Z,7.05
2023-01-03T15:13:46.758Z,6.78
2023-01-03T15:16:39.836Z,8.23
2023-01-03T15:19:19.848Z,6.18
2023-01-03T15:21:51.820Z,6.97
2023-01-03T15:24:24.803Z,5.95
2023-01-03T15:26:53.377Z,5.93
2023-01-03T15:29:23.798Z,6.25
2023-01-03T15:31:53.502Z,7.32
2023-01-03T15:34:23.792Z,9.05
2023-01-03T15:37:13.139Z,7.63
2023-01-03T15:39:42.339Z,7.20
2023-01-03T15:42:44.706Z,7.70
2023-01-03T15:45:19.293Z,11.38
2023-01-03T15:59:01.501Z,10.23
2023-01-03T16:01:28.368Z,8.77
2023-01-03T16:06:22.149Z,8.57
2023-01-03T16:08:48.949Z,10.93
2023-01-03T16:11:22.958Z,10.13
2023-01-03T16:13:57.104Z,10.88
2023-01-03T16:16:34.728Z,11.57
2023-01-03T16:19:04.266Z,14.52
2023-01-03T16:21:31.372Z,11.60
2023-01-03T16:23:59.180Z,16.05
2023-01-03T16:26:26.211Z,8.13
2023-01-03T16:28:53.040Z,7.03
2023-01-03T16:31:32.068Z,9.75
2023-01-03T16:33:59.400Z,11.30
2023-01-03T16:36:40.023Z,6.78
2023-01-03T16:39:17.196Z,11.48
2023-01-03T16:42:06.631Z,7.15
2023-01-03T16:44:35.286Z,10.48
2023-01-03T16:47:03.427Z,7.57
2023-01-03T16:49:33.726Z,8.20
2023-01-03T16:52:01.470Z,7.18
2023-01-03T16:54:28.355Z,5.55
2023-01-03T16:59:22.844Z,6.65
2023-01-03T17:01:50.464Z,8.98
2023-01-03T17:04:17.375Z,7.82
2023-01-03T17:06:44.688Z,6.07
2023-01-03T17:09:19.016Z,8.75
2023-01-03T17:11:46.675Z,10.13
2023-01-03T17:14:22.167Z,7.18
2023-01-03T17:16:50.036Z,11.35
2023-01-03T17:22:23.605Z,10.95
2023-01-03T17:24:51.639Z,9.75
2023-01-03T17:27:32.084Z,10.95
2023-01-03T17:30:03.569Z,9.70
2023-01-03T17:32:30.914Z,13.00
2023-01-03T17:34:57.826Z,9.50
2023-01-03T17:37:25.629Z,11.85
2023-01-03T17:40:00.617Z,9.15
2023-01-03T17:42:29.051Z,12.70
2023-01-03T17:45:14.794Z,12.90
2023-01-03T17:48:02.472Z,9.80
2023-01-03T17:50:31.856Z,11.02
2023-01-03T17:53:01.071Z,9.05
2023-01-03T17:55:30.347Z,14.45
2023-01-03T17:58:01.388Z,10.95
2023-01-03T18:00:29.099Z,11.23
2023-01-03T18:02:56.364Z,16.65
2023-01-03T18:05:28.459Z,11.98
2023-01-03T18:07:58.743Z,11.65
2023-01-03T18:10:40.240Z,12.20
2023-01-03T18:13:24.466Z,10.30
2023-01-03T18:15:52.383Z,12.73
2023-01-03T18:18:21.883Z,12.60
2023-01-03T18:20:49.095Z,12.52
2023-01-03T18:23:25.117Z,15.77
2023-01-03T18:25:52.834Z,16.40
2023-01-03T18:28:24.541Z,11.43
2023-01-03T18:30:51.755Z,11.80
2023-01-03T18:33:18.651Z,14.05
2023-01-03T18:35:45.608Z,12.40
2023-01-03T18:38:27.939Z,11.60
2023-01-03T18:41:00.744Z,10.85
2023-01-03T18:43:31.883Z,15.55
2023-01-03T18:45:58.752Z,14.35
2023-01-03T18:48:25.729Z,15.90
2023-01-03T18:50:59.023Z,17.15
2023-01-03T18:53:31.083Z,14.65
2023-01-03T18:55:57.982Z,16.85
2023-01-03T18:58:32.042Z,14.13
2023-01-03T19:00:59.184Z,15.23
2023-01-03T19:05:55.390Z,17.60
2023-01-03T19:08:25.640Z,17.08
2023-01-03T19:10:52.716Z,18.77
2023-01-03T19:15:56.986Z,14.45
2023-01-03T19:18:23.874Z,18.00
2023-01-03T19:20:51.173Z,16.52
2023-01-03T19:23:25.253Z,18.65
2023-01-03T19:25:54.644Z,15.75
2023-01-03T19:28:24.868Z,18.75
2023-01-03T19:30:52.183Z,16.65
2023-01-03T19:33:19.487Z,19.25
2023-01-03T19:35:46.767Z,20.05
2023-01-03T19:38:13.710Z,16.88
2023-01-03T19:40:42.952Z,18.48
2023-01-03T19:43:21.763Z,14.38
2023-01-03T19:45:49.029Z,14.05
2023-01-03T19:48:22.004Z,14.27
2023-01-03T19:50:49.681Z,14.30
2023-01-03T19:53:16.645Z,16.85
2023-01-03T19:55:49.119Z,15.20
2023-01-03T19:58:29.644Z,17.42
2023-01-03T20:00:57.127Z,15.93
2023-01-03T20:03:32.102Z,18.10
2023-01-03T20:05:59.755Z,17.90
2023-01-03T20:08:26.867Z,18.38
2023-01-03T20:13:23.817Z,16.02
2023-01-03T20:15:57.327Z,14.63
2023-01-03T20:18:27.758Z,12.68
2023-01-03T20:21:01.854Z,13.35
2023-01-03T20:23:36.213Z,9.68
2023-01-03T20:26:03.993Z,11.30
2023-01-03T20:28:31.243Z,9.85
2023-01-03T20:31:00.306Z,11.20
2023-01-03T20:33:28.465Z,9.38
2023-01-03T20:36:12.693Z,9.77
2023-01-03T20:38:44.846Z,9.77
2023-01-03T20:41:14.408Z,11.88
2023-01-03T20:43:42.435Z,9.65
2023-01-03T20:46:17.083Z,11.52
2023-01-03T20:48:44.505Z,12.88
2023-01-03T20:51:15.085Z,11.15
2023-01-03T20:53:43.218Z,12.07
2023-01-03T20:56:12.856Z,13.38
2023-01-03T20:58:39.907Z,11.43
2023-01-03T21:03:38.022Z,11.90
2023-01-03T21:06:17.700Z,10.32
2023-01-03T21:08:54.104Z,13.02
2023-01-03T21:11:32.355Z,9.05
2023-01-03T21:14:00.509Z,12.27
2023-01-03T21:16:38.934Z,9.10
2023-01-03T21:19:07.818Z,8.55
2023-01-03T21:21:35.334Z,9.15
2023-01-03T21:24:02.587Z,9.00
2023-01-03T21:26:29.548Z,8.13
2023-01-03T21:28:56.970Z,12.25
2023-01-03T21:31:24.765Z,9.35
2023-01-03T21:33:52.426Z,10.75
2023-01-03T21:36:25.259Z,10.15
2023-01-03T21:38:52.200Z,10.23
2023-01-03T21:41:25.096Z,8.52
2023-01-03T21:43:59.433Z,10.93
2023-01-03T21:46:27.889Z,9.70
2023-01-03T21:48:55.842Z,11.40
2023-01-03T21:51:38.468Z,10.30
2023-01-03T21:54:09.369Z,9.85
2023-01-03T21:56:45.844Z,9.30
2023-01-03T21:59:14.679Z,8.98
2023-01-03T22:02:01.742Z,15.32
2023-01-03T22:04:28.678Z,20.10
2023-01-03T22:07:00.816Z,21.67
2023-01-03T22:09:48.445Z,14.43
2023-01-03T22:12:16.145Z,11.30
2023-01-03T22:14:44.019Z,9.68
2023-01-03T22:17:10.955Z,7.95
2023-01-03T22:19:37.782Z,11.50
2023-01-03T22:22:04.963Z,12.13
2023-01-03T22:26:58.933Z,11.95
2023-01-03T22:29:25.725Z,14.70
2023-01-03T22:31:52.751Z,16.38
2023-01-03T22:34:20.313Z,16.65
2023-01-03T22:36:47.239Z,13.90
2023-01-03T22:39:14.329Z,13.55
2023-01-03T22:44:07.911Z,13.07
2023-01-03T22:46:35.047Z,9.75
2023-01-03T22:51:28.748Z,10.93
2023-01-03T22:53:55.564Z,8.98
2023-01-03T22:56:22.413Z,11.50
2023-01-03T22:58:49.240Z,13.13
2023-01-03T23:01:27.252Z,9.07
2023-01-03T23:03:55.586Z,13.60
2023-01-03T23:06:22.590Z,12.23
2023-01-03T23:08:52.546Z,12.13
2023-01-03T23:11:43.086Z,12.52
2023-01-03T23:14:15.313Z,11.65
2023-01-03T23:16:44.446Z,12.32
2023-01-03T23:19:14.576Z,14.68
2023-01-03T23:21:42.287Z,11.00
2023-01-03T23:24:14.313Z,13.15
2023-01-03T23:26:41.378Z,13.88
2023-01-03T23:29:09.651Z,12.85
2023-01-03T23:31:36.724Z,10.40
2023-01-03T23:34:03.693Z,14.85
2023-01-03T23:39:00.948Z,15.18
2023-01-03T23:41:28.003Z,14.10
2023-01-03T23:43:54.994Z,13.15
2023-01-03T23:48:55.454Z,14.20
2023-01-03T23:51:24.056Z,15.82
2023-01-03T23:53:51.861Z,11.27
2023-01-03T23:56:21.327Z,13.27
2023-01-03T23:58:48.567Z,9.48
